Time,TemperatureF,DewpointF,PressureIn,WindDirection,WindDirectionDegrees,WindSpeedMPH,WindSpeedGustMPH,Humidity,HourlyPrecipIn,Conditions,Clouds,dailyrainin,SolarRadiationWatts/m^2,SoftwareType,DateUTC
2013-01-15 00:02:00,-2.0,-9.0,-100.00,WNW,286,1.0,5.0,71,0.00,,,0.00,0.000000,,2013-01-15 07:02:00,
2013-01-15 00:12:00,-2.0,-9.0,-100.00,WNW,286,1.0,5.0,71,0.00,,,0.00,0.000000,,2013-01-15 07:12:00,
2013-01-15 00:22:00,-2.0,-9.0,-100.00,WNW,286,1.0,5.0,71,0.00,,,0.00,0.000000,,2013-01-15 07:22:00,
2013-01-15 00:43:00,-1.0,-9.0,-100.00,NW,321,2.0,4.0,69,0.00,,,0.00,1.000000,,2013-01-15 07:43:00,
2013-01-15 00:53:00,-1.0,-9.0,-100.00,NW,321,2.0,4.0,69,0.00,,,0.00,1.000000,,2013-01-15 07:53:00,
2013-01-15 01:02:00,-1.0,-9.0,-100.00,NW,321,2.0,4.0,69,0.00,,,0.00,1.000000,,2013-01-15 08:02:00,
2013-01-15 01:12:00,-1.0,-9.0,-100.00,NW,321,2.0,4.0,69,0.00,,,0.00,1.000000,,2013-01-15 08:12:00,
2013-01-15 01:22:00,-1.0,-9.0,-100.00,NW,321,2.0,4.0,69,0.00,,,0.00,1.000000,,2013-01-15 08:22:00,
2013-01-15 01:43:00,-1.0,-9.0,-100.00,WSW,244,1.0,2.0,67,0.00,,,0.00,0.000000,,2013-01-15 08:43:00,
2013-01-15 01:53:00,-1.0,-9.0,-100.00,WSW,244,1.0,2.0,67,0.00,,,0.00,0.000000,,2013-01-15 08:53:00,
2013-01-15 02:02:00,-1.0,-9.0,-100.00,WSW,244,1.0,2.0,67,0.00,,,0.00,0.000000,,2013-01-15 09:02:00,
2013-01-15 02:12:00,-1.0,-9.0,-100.00,WSW,244,1.0,2.0,67,0.00,,,0.00,0.000000,,2013-01-15 09:12:00,
2013-01-15 02:22:00,-1.0,-9.0,-100.00,WSW,244,1.0,2.0,67,0.00,,,0.00,0.000000,,2013-01-15 09:22:00,
2013-01-15 02:43:00,0.0,-10.0,-100.00,SSW,209,2.0,5.0,61,0.00,,,0.00,1.000000,,2013-01-15 09:43:00,
2013-01-15 02:52:00,0.0,-10.0,-100.00,SSW,209,2.0,5.0,61,0.00,,,0.00,1.000000,,2013-01-15 09:52:00,
2013-01-15 03:02:00,0.0,-10.0,-100.00,SSW,209,2.0,5.0,61,0.00,,,0.00,1.000000,,2013-01-15 10:02:00,
2013-01-15 03:12:00,0.0,-10.0,-100.00,SSW,209,2.0,5.0,61,0.00,,,0.00,1.000000,,2013-01-15 10:12:00,
2013-01-15 03:22:00,0.0,-10.0,-100.00,SSW,209,2.0,5.0,61,0.00,,,0.00,1.000000,,2013-01-15 10:22:00,
2013-01-15 03:42:00,7.0,-6.0,-100.00,SW,218,2.0,7.0,53,0.00,,,0.00,0.000000,,2013-01-15 10:42:00,
2013-01-15 03:52:00,7.0,-6.0,-100.00,SW,218,2.0,7.0,53,0.00,,,0.00,0.000000,,2013-01-15 10:52:00,
2013-01-15 04:02:00,7.0,-6.0,-100.00,SW,218,2.0,7.0,53,0.00,,,0.00,0.000000,,2013-01-15 11:02:00,
2013-01-15 04:12:00,7.0,-6.0,-100.00,SW,218,2.0,7.0,53,0.00,,,0.00,0.000000,,2013-01-15 11:12:00,
2013-01-15 04:22:00,7.0,-6.0,-100.00,SW,218,2.0,7.0,53,0.00,,,0.00,0.000000,,2013-01-15 11:22:00,
2013-01-15 04:43:00,11.0,-2.0,-100.00,SW,224,4.0,10.0,56,0.00,,,0.00,1.000000,,2013-01-15 11:43:00,
2013-01-15 04:53:00,11.0,-2.0,-100.00,SW,224,4.0,10.0,56,0.00,,,0.00,1.000000,,2013-01-15 11:53:00,
2013-01-15 05:03:00,11.0,-2.0,-100.00,SW,224,4.0,10.0,56,0.00,,,0.00,1.000000,,2013-01-15 12:03:00,
2013-01-15 05:12:00,11.0,-2.0,-100.00,SW,224,4.0,10.0,56,0.00,,,0.00,1.000000,,2013-01-15 12:12:00,
2013-01-15 05:22:00,11.0,-2.0,-100.00,SW,224,4.0,10.0,56,0.00,,,0.00,1.000000,,2013-01-15 12:22:00,
2013-01-15 05:43:00,12.0,0.0,-100.00,West,259,4.0,10.0,57,0.00,,,0.00,1.000000,,2013-01-15 12:43:00,
2013-01-15 05:53:00,12.0,0.0,-100.00,West,259,4.0,10.0,57,0.00,,,0.00,1.000000,,2013-01-15 12:53:00,
2013-01-15 06:03:00,12.0,0.0,-100.00,West,259,4.0,10.0,57,0.00,,,0.00,1.000000,,2013-01-15 13:03:00,
2013-01-15 06:12:00,12.0,0.0,-100.00,West,259,4.0,10.0,57,0.00,,,0.00,1.000000,,2013-01-15 13:12:00,
2013-01-15 06:23:00,12.0,0.0,-100.00,West,259,4.0,10.0,57,0.00,,,0.00,1.000000,,2013-01-15 13:23:00,
2013-01-15 06:43:00,13.0,6.0,-100.00,SW,223,4.0,10.0,72,0.00,,,0.00,1.000000,,2013-01-15 13:43:00,
2013-01-15 06:53:00,13.0,6.0,-100.00,SW,223,4.0,10.0,72,0.00,,,0.00,1.000000,,2013-01-15 13:53:00,
2013-01-15 07:03:00,13.0,6.0,-100.00,SW,223,4.0,10.0,72,0.00,,,0.00,1.000000,,2013-01-15 14:03:00,
2013-01-15 07:12:00,13.0,6.0,-100.00,SW,223,4.0,10.0,72,0.00,,,0.00,1.000000,,2013-01-15 14:12:00,
2013-01-15 07:23:00,13.0,6.0,-100.00,SW,223,4.0,10.0,72,0.00,,,0.00,1.000000,,2013-01-15 14:23:00,
2013-01-15 07:43:00,13.0,8.0,-100.00,SSW,192,4.0,11.0,79,0.00,,,0.00,1.000000,,2013-01-15 14:43:00,
2013-01-15 07:53:00,13.0,8.0,-100.00,SSW,192,4.0,11.0,79,0.00,,,0.00,1.000000,,2013-01-15 14:53:00,
2013-01-15 08:03:00,13.0,8.0,-100.00,SSW,192,4.0,11.0,79,0.00,,,0.00,1.000000,,2013-01-15 15:03:00,
2013-01-15 08:12:00,13.0,8.0,-100.00,SSW,192,4.0,11.0,79,0.00,,,0.00,1.000000,,2013-01-15 15:12:00,
2013-01-15 08:23:00,13.0,8.0,-100.00,SSW,192,4.0,11.0,79,0.00,,,0.00,1.000000,,2013-01-15 15:23:00,
2013-01-15 08:43:00,16.0,12.0,-100.00,SSW,195,5.0,14.0,83,0.00,,,0.00,22.000000,,2013-01-15 15:43:00,
2013-01-15 08:53:00,16.0,12.0,-100.00,SSW,195,5.0,14.0,83,0.00,,,0.00,22.000000,,2013-01-15 15:53:00,
2013-01-15 09:03:00,16.0,12.0,-100.00,SSW,195,5.0,14.0,83,0.00,,,0.00,22.000000,,2013-01-15 16:03:00,
2013-01-15 09:12:00,16.0,12.0,-100.00,SSW,195,5.0,14.0,83,0.00,,,0.00,22.000000,,2013-01-15 16:12:00,
2013-01-15 09:22:00,16.0,12.0,-100.00,SSW,195,5.0,14.0,83,0.00,,,0.00,22.000000,,2013-01-15 16:22:00,
2013-01-15 09:43:00,20.0,14.0,-100.00,SSW,213,5.0,11.0,78,0.00,,,0.00,86.000000,,2013-01-15 16:43:00,
2013-01-15 09:53:00,20.0,14.0,-100.00,SSW,213,5.0,11.0,78,0.00,,,0.00,86.000000,,2013-01-15 16:53:00,
2013-01-15 10:03:00,20.0,14.0,-100.00,SSW,213,5.0,11.0,78,0.00,,,0.00,86.000000,,2013-01-15 17:03:00,
2013-01-15 10:12:00,20.0,14.0,-100.00,SSW,213,5.0,11.0,78,0.00,,,0.00,86.000000,,2013-01-15 17:12:00,
2013-01-15 10:22:00,20.0,14.0,-100.00,SSW,213,5.0,11.0,78,0.00,,,0.00,86.000000,,2013-01-15 17:22:00,
2013-01-15 10:43:00,26.0,17.0,-100.00,East,89,2.0,9.0,67,0.00,,,0.00,146.000000,,2013-01-15 17:43:00,
2013-01-15 10:53:00,26.0,17.0,-100.00,East,89,2.0,9.0,67,0.00,,,0.00,146.000000,,2013-01-15 17:53:00,
2013-01-15 11:03:00,26.0,17.0,-100.00,East,89,2.0,9.0,67,0.00,,,0.00,146.000000,,2013-01-15 18:03:00,
2013-01-15 11:13:00,26.0,17.0,-100.00,East,89,2.0,9.0,67,0.00,,,0.00,146.000000,,2013-01-15 18:13:00,
2013-01-15 11:23:00,26.0,17.0,-100.00,East,89,2.0,9.0,67,0.00,,,0.00,146.000000,,2013-01-15 18:23:00,
2013-01-15 11:43:00,27.0,18.0,-100.00,SW,232,4.0,13.0,68,0.00,,,0.00,223.000000,,2013-01-15 18:43:00,
2013-01-15 11:53:00,27.0,18.0,-100.00,SW,232,4.0,13.0,68,0.00,,,0.00,223.000000,,2013-01-15 18:53:00,
2013-01-15 12:03:00,27.0,18.0,-100.00,SW,232,4.0,13.0,68,0.00,,,0.00,223.000000,,2013-01-15 19:03:00,
2013-01-15 12:12:00,27.0,18.0,-100.00,SW,232,4.0,13.0,68,0.00,,,0.00,223.000000,,2013-01-15 19:12:00,
2013-01-15 12:22:00,27.0,18.0,-100.00,SW,232,4.0,13.0,68,0.00,,,0.00,223.000000,,2013-01-15 19:22:00,
2013-01-15 12:43:00,35.0,20.0,-100.00,SW,215,4.0,11.0,54,0.01,,,0.01,308.000000,,2013-01-15 19:43:00,
2013-01-15 12:53:00,35.0,20.0,-100.00,SW,215,4.0,11.0,54,0.01,,,0.01,308.000000,,2013-01-15 19:53:00,
2013-01-15 13:03:00,35.0,20.0,-100.00,SW,215,4.0,11.0,54,0.01,,,0.01,308.000000,,2013-01-15 20:03:00,
2013-01-15 13:12:00,35.0,20.0,-100.00,SW,215,4.0,11.0,54,0.01,,,0.01,308.000000,,2013-01-15 20:12:00,
2013-01-15 13:23:00,35.0,20.0,-100.00,SW,215,4.0,11.0,54,0.01,,,0.01,308.000000,,2013-01-15 20:23:00,
2013-01-15 13:44:00,32.0,21.0,-100.00,SW,216,4.0,11.0,64,0.01,,,0.02,242.000000,,2013-01-15 20:44:00,
2013-01-15 13:53:00,32.0,21.0,-100.00,SW,216,4.0,11.0,64,0.01,,,0.02,242.000000,,2013-01-15 20:53:00,
2013-01-15 14:03:00,32.0,21.0,-100.00,SW,216,4.0,11.0,64,0.01,,,0.02,242.000000,,2013-01-15 21:03:00,
2013-01-15 14:13:00,32.0,21.0,-100.00,SW,216,4.0,11.0,64,0.01,,,0.02,242.000000,,2013-01-15 21:13:00,
2013-01-15 14:23:00,32.0,21.0,-100.00,SW,216,4.0,11.0,64,0.01,,,0.02,242.000000,,2013-01-15 21:23:00,
2013-01-15 14:43:00,33.0,19.0,-100.00,SW,224,5.0,10.0,57,0.01,,,0.03,299.000000,,2013-01-15 21:43:00,
2013-01-15 14:53:00,33.0,19.0,-100.00,SW,224,5.0,10.0,57,0.01,,,0.03,299.000000,,2013-01-15 21:53:00,
2013-01-15 15:03:00,33.0,19.0,-100.00,SW,224,5.0,10.0,57,0.01,,,0.03,299.000000,,2013-01-15 22:03:00,
2013-01-15 15:12:00,33.0,19.0,-100.00,SW,224,5.0,10.0,57,0.01,,,0.03,299.000000,,2013-01-15 22:12:00,
2013-01-15 15:23:00,33.0,19.0,-100.00,SW,224,5.0,10.0,57,0.01,,,0.03,299.000000,,2013-01-15 22:23:00,
2013-01-15 15:43:00,29.0,20.0,-100.00,WNW,282,3.0,11.0,69,0.01,,,0.04,115.000000,,2013-01-15 22:43:00,
2013-01-15 15:53:00,29.0,20.0,-100.00,WNW,282,3.0,11.0,69,0.01,,,0.04,115.000000,,2013-01-15 22:53:00,
2013-01-15 16:02:00,29.0,20.0,-100.00,WNW,282,3.0,11.0,69,0.01,,,0.04,115.000000,,2013-01-15 23:02:00,
2013-01-15 16:13:00,29.0,20.0,-100.00,WNW,282,3.0,11.0,69,0.01,,,0.04,115.000000,,2013-01-15 23:13:00,
2013-01-15 16:22:00,29.0,20.0,-100.00,WNW,282,3.0,11.0,69,0.01,,,0.04,115.000000,,2013-01-15 23:22:00,
2013-01-15 16:43:00,28.0,20.0,-100.00,South,170,4.0,9.0,73,0.00,,,0.04,56.000000,,2013-01-15 23:43:00,
2013-01-15 16:53:00,28.0,20.0,-100.00,South,170,4.0,9.0,73,0.00,,,0.04,56.000000,,2013-01-15 23:53:00,
2013-01-15 17:02:00,28.0,20.0,-100.00,South,170,4.0,9.0,73,0.00,,,0.04,56.000000,,2013-01-16 00:02:00,
2013-01-15 17:12:00,28.0,20.0,-100.00,South,170,4.0,9.0,73,0.00,,,0.04,56.000000,,2013-01-16 00:12:00,
2013-01-15 17:22:00,28.0,20.0,-100.00,South,170,4.0,9.0,73,0.00,,,0.04,56.000000,,2013-01-16 00:22:00,
2013-01-15 17:43:00,26.0,20.0,-100.00,SW,227,3.0,8.0,78,0.00,,,0.04,7.000000,,2013-01-16 00:43:00,
2013-01-15 17:53:00,26.0,20.0,-100.00,SW,227,3.0,8.0,78,0.00,,,0.04,7.000000,,2013-01-16 00:53:00,
2013-01-15 18:03:00,26.0,20.0,-100.00,SW,227,3.0,8.0,78,0.00,,,0.04,7.000000,,2013-01-16 01:03:00,
2013-01-15 18:12:00,26.0,20.0,-100.00,SW,227,3.0,8.0,78,0.00,,,0.04,7.000000,,2013-01-16 01:12:00,
2013-01-15 18:22:00,26.0,20.0,-100.00,SW,227,3.0,8.0,78,0.00,,,0.04,7.000000,,2013-01-16 01:22:00,
2013-01-15 18:43:00,27.0,22.0,-100.00,SW,222,5.0,13.0,82,0.00,,,0.04,1.000000,,2013-01-16 01:43:00,
2013-01-15 18:53:00,27.0,22.0,-100.00,SW,222,5.0,13.0,82,0.00,,,0.04,1.000000,,2013-01-16 01:53:00,
2013-01-15 19:03:00,27.0,22.0,-100.00,SW,222,5.0,13.0,82,0.00,,,0.04,1.000000,,2013-01-16 02:03:00,
2013-01-15 19:12:00,27.0,22.0,-100.00,SW,222,5.0,13.0,82,0.00,,,0.04,1.000000,,2013-01-16 02:12:00,
2013-01-15 19:22:00,27.0,22.0,-100.00,SW,222,5.0,13.0,82,0.00,,,0.04,1.000000,,2013-01-16 02:22:00,
2013-01-15 19:43:00,30.0,23.0,-100.00,SSW,210,4.0,17.0,76,0.00,,,0.04,1.000000,,2013-01-16 02:43:00,
2013-01-15 19:53:00,30.0,23.0,-100.00,SSW,210,4.0,17.0,76,0.00,,,0.04,1.000000,,2013-01-16 02:53:00,
2013-01-15 20:03:00,30.0,23.0,-100.00,SSW,210,4.0,17.0,76,0.00,,,0.04,1.000000,,2013-01-16 03:03:00,
2013-01-15 20:12:00,30.0,23.0,-100.00,SSW,210,4.0,17.0,76,0.00,,,0.04,1.000000,,2013-01-16 03:12:00,
2013-01-15 20:22:00,30.0,23.0,-100.00,SSW,210,4.0,17.0,76,0.00,,,0.04,1.000000,,2013-01-16 03:22:00,
2013-01-15 20:43:00,31.0,24.0,-100.00,SW,214,6.0,12.0,74,0.00,,,0.04,1.000000,,2013-01-16 03:43:00,
2013-01-15 20:53:00,31.0,24.0,-100.00,SW,214,6.0,12.0,74,0.00,,,0.04,1.000000,,2013-01-16 03:53:00,
2013-01-15 21:02:00,31.0,24.0,-100.00,SW,214,6.0,12.0,74,0.00,,,0.04,1.000000,,2013-01-16 04:02:00,
2013-01-15 21:12:00,31.0,24.0,-100.00,SW,214,6.0,12.0,74,0.00,,,0.04,1.000000,,2013-01-16 04:12:00,
2013-01-15 21:22:00,31.0,24.0,-100.00,SW,214,6.0,12.0,74,0.00,,,0.04,1.000000,,2013-01-16 04:22:00,
2013-01-15 21:42:00,30.0,23.0,-100.00,SW,230,5.0,13.0,74,0.00,,,0.04,1.000000,,2013-01-16 04:42:00,
2013-01-15 21:52:00,30.0,23.0,-100.00,SW,230,5.0,13.0,74,0.00,,,0.04,1.000000,,2013-01-16 04:52:00,
2013-01-15 22:03:00,30.0,23.0,-100.00,SW,230,5.0,13.0,74,0.00,,,0.04,1.000000,,2013-01-16 05:03:00,
2013-01-15 22:12:00,30.0,23.0,-100.00,SW,230,5.0,13.0,74,0.00,,,0.04,1.000000,,2013-01-16 05:12:00,
2013-01-15 22:22:00,30.0,23.0,-100.00,SW,230,5.0,13.0,74,0.00,,,0.04,1.000000,,2013-01-16 05:22:00,
2013-01-15 22:42:00,29.0,23.0,-100.00,WSW,239,4.0,14.0,78,0.00,,,0.04,1.000000,,2013-01-16 05:42:00,
2013-01-15 22:53:00,29.0,23.0,-100.00,WSW,239,4.0,14.0,78,0.00,,,0.04,1.000000,,2013-01-16 05:53:00,
2013-01-15 23:02:00,29.0,23.0,-100.00,WSW,239,4.0,14.0,78,0.00,,,0.04,1.000000,,2013-01-16 06:02:00,
2013-01-15 23:12:00,29.0,23.0,-100.00,WSW,239,4.0,14.0,78,0.00,,,0.04,1.000000,,2013-01-16 06:12:00,
2013-01-15 23:22:00,29.0,23.0,-100.00,WSW,239,4.0,14.0,78,0.00,,,0.04,1.000000,,2013-01-16 06:22:00,
2013-01-15 23:43:00,27.0,21.0,-100.00,SW,227,5.0,10.0,79,0.00,,,0.04,1.000000,,2013-01-16 06:43:00,
2013-01-15 23:53:00,27.0,21.0,-100.00,SW,227,5.0,10.0,79,0.00,,,0.04,1.000000,,2013-01-16 06:53:00,